sensor_id;sensor_type;location;lat;lon;timestamp;temperature;humidity
68609;SHT31;55581;46.718;7.690;2023-05-10T00:01:17;12.02;95.15
68609;SHT31;55581;46.718;7.690;2023-05-10T00:03:44;12.02;95.47
68609;SHT31;55581;46.718;7.690;2023-05-10T00:06:09;12.11;95.74
68609;SHT31;55581;46.718;7.690;2023-05-10T00:08:34;12.17;95.30
68609;SHT31;55581;46.718;7.690;2023-05-10T00:11:00;12.20;94.98
68609;SHT31;55581;46.718;7.690;2023-05-10T00:13:26;12.14;94.86
68609;SHT31;55581;46.718;7.690;2023-05-10T00:15:52;12.17;95.10
68609;SHT31;55581;46.718;7.690;2023-05-10T00:18:17;12.15;94.78
68609;SHT31;55581;46.718;7.690;2023-05-10T00:20:45;12.05;94.61
68609;SHT31;55581;46.718;7.690;2023-05-10T00:23:11;12.02;95.51
68609;SHT31;55581;46.718;7.690;2023-05-10T00:25:37;12.06;96.98
68609;SHT31;55581;46.718;7.690;2023-05-10T00:28:04;12.08;96.69
68609;SHT31;55581;46.718;7.690;2023-05-10T00:30:32;12.11;96.82
68609;SHT31;55581;46.718;7.690;2023-05-10T00:32:58;12.18;96.72
68609;SHT31;55581;46.718;7.690;2023-05-10T00:35:26;12.20;96.49
68609;SHT31;55581;46.718;7.690;2023-05-10T00:37:53;12.26;95.49
68609;SHT31;55581;46.718;7.690;2023-05-10T00:40:20;12.31;94.67
68609;SHT31;55581;46.718;7.690;2023-05-10T00:42:45;12.28;95.59
68609;SHT31;55581;46.718;7.690;2023-05-10T00:45:11;12.26;95.98
68609;SHT31;55581;46.718;7.690;2023-05-10T00:47:36;12.25;95.65
68609;SHT31;55581;46.718;7.690;2023-05-10T00:50:05;12.28;95.34
68609;SHT31;55581;46.718;7.690;2023-05-10T00:52:31;12.28;95.96
68609;SHT31;55581;46.718;7.690;2023-05-10T00:54:57;12.29;95.67
68609;SHT31;55581;46.718;7.690;2023-05-10T00:57:26;12.26;95.42
68609;SHT31;55581;46.718;7.690;2023-05-10T00:59:52;12.29;94.76
68609;SHT31;55581;46.718;7.690;2023-05-10T01:02:17;12.29;94.47
68609;SHT31;55581;46.718;7.690;2023-05-10T01:04:43;12.35;93.18
68609;SHT31;55581;46.718;7.690;2023-05-10T01:07:08;12.33;92.70
68609;SHT31;55581;46.718;7.690;2023-05-10T01:09:34;12.33;92.43
68609;SHT31;55581;46.718;7.690;2023-05-10T01:12:00;12.40;91.59
68609;SHT31;55581;46.718;7.690;2023-05-10T01:14:28;12.38;91.94
68609;SHT31;55581;46.718;7.690;2023-05-10T01:16:54;12.35;92.21
68609;SHT31;55581;46.718;7.690;2023-05-10T01:19:28;12.38;90.09
68609;SHT31;55581;46.718;7.690;2023-05-10T01:36:11;12.11;94.40
68609;SHT31;55581;46.718;7.690;2023-05-10T01:38:44;12.04;94.92
68609;SHT31;55581;46.718;7.690;2023-05-10T01:44:18;12.02;93.94
68609;SHT31;55581;46.718;7.690;2023-05-10T01:46:50;12.02;93.45
68609;SHT31;55581;46.718;7.690;2023-05-10T01:49:24;12.04;94.18
68609;SHT31;55581;46.718;7.690;2023-05-10T01:51:54;12.05;94.43
68609;SHT31;55581;46.718;7.690;2023-05-10T01:54:27;12.05;94.01
68609;SHT31;55581;46.718;7.690;2023-05-10T01:57:01;12.06;92.55
68609;SHT31;55581;46.718;7.690;2023-05-10T01:59:31;11.94;94.11
68609;SHT31;55581;46.718;7.690;2023-05-10T02:02:02;11.95;95.01
68609;SHT31;55581;46.718;7.690;2023-05-10T02:04:30;11.90;95.26
68609;SHT31;55581;46.718;7.690;2023-05-10T02:06:57;11.91;95.93
68609;SHT31;55581;46.718;7.690;2023-05-10T02:09:23;11.93;95.36
68609;SHT31;55581;46.718;7.690;2023-05-10T02:11:50;11.93;94.95
68609;SHT31;55581;46.718;7.690;2023-05-10T02:14:18;11.95;94.58
68609;SHT31;55581;46.718;7.690;2023-05-10T02:16:45;12.01;92.82
68609;SHT31;55581;46.718;7.690;2023-05-10T02:19:11;11.99;91.85
68609;SHT31;55581;46.718;7.690;2023-05-10T02:21:39;11.93;92.93
68609;SHT31;55581;46.718;7.690;2023-05-10T02:24:05;11.88;93.43
68609;SHT31;55581;46.718;7.690;2023-05-10T02:26:33;11.87;94.60
68609;SHT31;55581;46.718;7.690;2023-05-10T02:29:03;11.85;94.45
68609;SHT31;55581;46.718;7.690;2023-05-10T02:31:32;11.87;93.81
68609;SHT31;55581;46.718;7.690;2023-05-10T02:33:59;11.81;92.82
68609;SHT31;55581;46.718;7.690;2023-05-10T02:36:28;11.78;92.88
68609;SHT31;55581;46.718;7.690;2023-05-10T02:38:54;11.71;92.96
68609;SHT31;55581;46.718;7.690;2023-05-10T02:41:21;11.62;93.00
68609;SHT31;55581;46.718;7.690;2023-05-10T02:43:51;11.53;93.90
68609;SHT31;55581;46.718;7.690;2023-05-10T02:46:17;11.46;94.66
68609;SHT31;55581;46.718;7.690;2023-05-10T02:48:43;11.36;94.20
68609;SHT31;55581;46.718;7.690;2023-05-10T02:51:09;11.38;95.52
68609;SHT31;55581;46.718;7.690;2023-05-10T02:53:40;11.29;94.62
68609;SHT31;55581;46.718;7.690;2023-05-10T02:56:14;11.21;94.15
68609;SHT31;55581;46.718;7.690;2023-05-10T02:58:41;11.18;94.71
68609;SHT31;55581;46.718;7.690;2023-05-10T03:01:06;11.12;95.28
68609;SHT31;55581;46.718;7.690;2023-05-10T03:03:33;11.14;95.55
68609;SHT31;55581;46.718;7.690;2023-05-10T03:05:58;11.10;95.23
68609;SHT31;55581;46.718;7.690;2023-05-10T03:08:24;11.05;95.13
68609;SHT31;55581;46.718;7.690;2023-05-10T03:14:25;11.07;95.60
68609;SHT31;55581;46.718;7.690;2023-05-10T03:17:08;11.16;95.38
68609;SHT31;55581;46.718;7.690;2023-05-10T03:22:23;11.12;95.32
68609;SHT31;55581;46.718;7.690;2023-05-10T03:24:56;11.15;95.82
68609;SHT31;55581;46.718;7.690;2023-05-10T03:27:26;11.21;95.45
68609;SHT31;55581;46.718;7.690;2023-05-10T03:29:53;11.15;95.97
68609;SHT31;55581;46.718;7.690;2023-05-10T03:32:21;11.11;96.25
68609;SHT31;55581;46.718;7.690;2023-05-10T03:34:48;11.14;96.14
68609;SHT31;55581;46.718;7.690;2023-05-10T03:37:13;11.18;96.54
68609;SHT31;55581;46.718;7.690;2023-05-10T03:39:42;11.16;96.81
68609;SHT31;55581;46.718;7.690;2023-05-10T03:42:07;11.08;96.59
68609;SHT31;55581;46.718;7.690;2023-05-10T03:44:32;11.10;96.65
68609;SHT31;55581;46.718;7.690;2023-05-10T03:46:58;11.14;97.18
68609;SHT31;55581;46.718;7.690;2023-05-10T03:49:26;11.14;97.45
68609;SHT31;55581;46.718;7.690;2023-05-10T03:51:54;11.19;97.21
68609;SHT31;55581;46.718;7.690;2023-05-10T03:54:19;11.23;97.00
68609;SHT31;55581;46.718;7.690;2023-05-10T03:56:45;11.35;96.64
68609;SHT31;55581;46.718;7.690;2023-05-10T03:59:13;11.46;95.38
68609;SHT31;55581;46.718;7.690;2023-05-10T04:01:38;11.47;95.66
68609;SHT31;55581;46.718;7.690;2023-05-10T04:04:03;11.52;94.42
68609;SHT31;55581;46.718;7.690;2023-05-10T04:06:29;11.52;93.88
68609;SHT31;55581;46.718;7.690;2023-05-10T04:08:54;11.52;93.85
68609;SHT31;55581;46.718;7.690;2023-05-10T04:11:21;11.65;92.32
68609;SHT31;55581;46.718;7.690;2023-05-10T04:13:47;11.67;91.99
68609;SHT31;55581;46.718;7.690;2023-05-10T04:16:12;11.57;94.16
68609;SHT31;55581;46.718;7.690;2023-05-10T04:18:37;11.55;94.20
68609;SHT31;55581;46.718;7.690;2023-05-10T04:21:11;11.55;95.01
68609;SHT31;55581;46.718;7.690;2023-05-10T04:23:41;11.50;95.24
68609;SHT31;55581;46.718;7.690;2023-05-10T04:26:07;11.46;94.07
68609;SHT31;55581;46.718;7.690;2023-05-10T04:28:32;11.53;93.00
68609;SHT31;55581;46.718;7.690;2023-05-10T04:31:05;11.44;92.45
68609;SHT31;55581;46.718;7.690;2023-05-10T04:33:33;11.47;93.41
68609;SHT31;55581;46.718;7.690;2023-05-10T04:35:59;11.49;93.98
68609;SHT31;55581;46.718;7.690;2023-05-10T04:38:24;11.49;94.52
68609;SHT31;55581;46.718;7.690;2023-05-10T04:40:50;11.43;95.11
68609;SHT31;55581;46.718;7.690;2023-05-10T04:43:16;11.46;95.92
68609;SHT31;55581;46.718;7.690;2023-05-10T04:45:42;11.49;95.50
68609;SHT31;55581;46.718;7.690;2023-05-10T04:48:09;11.47;95.95
68609;SHT31;55581;46.718;7.690;2023-05-10T04:50:35;11.50;95.71
68609;SHT31;55581;46.718;7.690;2023-05-10T04:53:00;11.46;95.12
68609;SHT31;55581;46.718;7.690;2023-05-10T04:55:26;11.53;95.38
68609;SHT31;55581;46.718;7.690;2023-05-10T04:57:52;11.55;95.94
68609;SHT31;55581;46.718;7.690;2023-05-10T05:00:22;11.59;95.55
68609;SHT31;55581;46.718;7.690;2023-05-10T05:02:47;11.57;95.05
68609;SHT31;55581;46.718;7.690;2023-05-10T05:05:12;11.52;95.34
68609;SHT31;55581;46.718;7.690;2023-05-10T05:07:39;11.52;95.53
68609;SHT31;55581;46.718;7.690;2023-05-10T05:10:10;11.59;95.36
68609;SHT31;55581;46.718;7.690;2023-05-10T05:12:35;11.59;95.05
68609;SHT31;55581;46.718;7.690;2023-05-10T05:15:01;11.44;94.97
68609;SHT31;55581;46.718;7.690;2023-05-10T05:17:30;11.35;95.72
68609;SHT31;55581;46.718;7.690;2023-05-10T05:19:57;11.39;96.01
68609;SHT31;55581;46.718;7.690;2023-05-10T05:22:23;11.42;96.57
68609;SHT31;55581;46.718;7.690;2023-05-10T05:24:55;11.47;95.07
68609;SHT31;55581;46.718;7.690;2023-05-10T05:27:21;11.53;94.91
68609;SHT31;55581;46.718;7.690;2023-05-10T05:29:52;11.49;95.19
68609;SHT31;55581;46.718;7.690;2023-05-10T05:32:17;11.47;95.20
68609;SHT31;55581;46.718;7.690;2023-05-10T05:34:46;11.49;95.31
68609;SHT31;55581;46.718;7.690;2023-05-10T05:37:16;11.49;95.83
68609;SHT31;55581;46.718;7.690;2023-05-10T05:39:42;11.44;94.74
68609;SHT31;55581;46.718;7.690;2023-05-10T05:42:08;11.38;94.42
68609;SHT31;55581;46.718;7.690;2023-05-10T05:44:34;11.38;94.80
68609;SHT31;55581;46.718;7.690;2023-05-10T05:46:59;11.36;94.20
68609;SHT31;55581;46.718;7.690;2023-05-10T05:49:25;11.32;94.66
68609;SHT31;55581;46.718;7.690;2023-05-10T05:51:51;11.29;95.47
68609;SHT31;55581;46.718;7.690;2023-05-10T05:54:18;11.25;95.21
68609;SHT31;55581;46.718;7.690;2023-05-10T05:56:44;11.28;95.08
68609;SHT31;55581;46.718;7.690;2023-05-10T05:59:10;11.32;94.25
68609;SHT31;55581;46.718;7.690;2023-05-10T06:01:36;11.40;95.03
68609;SHT31;55581;46.718;7.690;2023-05-10T06:04:01;11.43;94.41
68609;SHT31;55581;46.718;7.690;2023-05-10T06:06:27;11.52;93.24
68609;SHT31;55581;46.718;7.690;2023-05-10T06:08:52;11.43;93.42
68609;SHT31;55581;46.718;7.690;2023-05-10T06:11:18;11.49;94.10
68609;SHT31;55581;46.718;7.690;2023-05-10T06:13:43;11.43;93.91
68609;SHT31;55581;46.718;7.690;2023-05-10T06:16:09;11.46;94.24
68609;SHT31;55581;46.718;7.690;2023-05-10T06:18:35;11.52;93.74
68609;SHT31;55581;46.718;7.690;2023-05-10T06:21:03;11.60;94.40
68609;SHT31;55581;46.718;7.690;2023-05-10T06:23:28;11.59;93.83
68609;SHT31;55581;46.718;7.690;2023-05-10T06:25:54;11.56;94.66
68609;SHT31;55581;46.718;7.690;2023-05-10T06:28:19;11.47;94.06
68609;SHT31;55581;46.718;7.690;2023-05-10T06:30:45;11.49;94.01
68609;SHT31;55581;46.718;7.690;2023-05-10T06:33:10;11.49;94.29
68609;SHT31;55581;46.718;7.690;2023-05-10T06:35:38;11.44;94.12
68609;SHT31;55581;46.718;7.690;2023-05-10T06:38:04;11.33;91.55
68609;SHT31;55581;46.718;7.690;2023-05-10T06:40:32;11.38;92.47
68609;SHT31;55581;46.718;7.690;2023-05-10T06:42:58;11.33;91.78
68609;SHT31;55581;46.718;7.690;2023-05-10T06:45:24;11.28;91.48
68609;SHT31;55581;46.718;7.690;2023-05-10T06:47:50;11.29;90.73
68609;SHT31;55581;46.718;7.690;2023-05-10T06:50:18;11.29;91.39
68609;SHT31;55581;46.718;7.690;2023-05-10T06:52:43;11.26;92.15
68609;SHT31;55581;46.718;7.690;2023-05-10T06:55:09;11.21;89.55
68609;SHT31;55581;46.718;7.690;2023-05-10T06:57:36;11.28;90.32
68609;SHT31;55581;46.718;7.690;2023-05-10T07:00:02;11.26;89.65
68609;SHT31;55581;46.718;7.690;2023-05-10T07:02:31;11.36;87.90
68609;SHT31;55581;46.718;7.690;2023-05-10T07:04:58;11.44;88.85
68609;SHT31;55581;46.718;7.690;2023-05-10T07:07:23;11.55;88.78
68609;SHT31;55581;46.718;7.690;2023-05-10T07:09:49;11.50;88.68
68609;SHT31;55581;46.718;7.690;2023-05-10T07:12:15;11.49;89.73
68609;SHT31;55581;46.718;7.690;2023-05-10T07:14:47;11.43;89.95
68609;SHT31;55581;46.718;7.690;2023-05-10T07:17:15;11.42;90.87
68609;SHT31;55581;46.718;7.690;2023-05-10T07:19:41;11.30;91.71
68609;SHT31;55581;46.718;7.690;2023-05-10T07:22:06;11.35;91.37
68609;SHT31;55581;46.718;7.690;2023-05-10T07:24:34;11.28;91.68
68609;SHT31;55581;46.718;7.690;2023-05-10T07:26:59;11.19;92.29
68609;SHT31;55581;46.718;7.690;2023-05-10T07:29:25;11.26;92.54
68609;SHT31;55581;46.718;7.690;2023-05-10T07:31:52;11.22;92.15
68609;SHT31;55581;46.718;7.690;2023-05-10T07:34:18;11.14;92.14
68609;SHT31;55581;46.718;7.690;2023-05-10T07:36:43;11.15;92.03
68609;SHT31;55581;46.718;7.690;2023-05-10T07:39:08;11.14;92.88
68609;SHT31;55581;46.718;7.690;2023-05-10T07:41:34;11.18;91.94
68609;SHT31;55581;46.718;7.690;2023-05-10T07:44:03;11.25;91.78
68609;SHT31;55581;46.718;7.690;2023-05-10T07:46:29;11.39;92.81
68609;SHT31;55581;46.718;7.690;2023-05-10T07:48:56;11.50;92.95
68609;SHT31;55581;46.718;7.690;2023-05-10T07:51:23;11.74;93.36
68609;SHT31;55581;46.718;7.690;2023-05-10T07:53:49;11.87;92.04
68609;SHT31;55581;46.718;7.690;2023-05-10T07:58:51;11.95;89.97
68609;SHT31;55581;46.718;7.690;2023-05-10T08:01:17;12.04;91.72
68609;SHT31;55581;46.718;7.690;2023-05-10T08:03:43;11.99;90.66
68609;SHT31;55581;46.718;7.690;2023-05-10T08:06:08;12.01;89.83
68609;SHT31;55581;46.718;7.690;2023-05-10T08:08:35;12.08;89.74
68609;SHT31;55581;46.718;7.690;2023-05-10T08:11:01;12.29;89.77
68609;SHT31;55581;46.718;7.690;2023-05-10T08:13:27;12.39;87.46
68609;SHT31;55581;46.718;7.690;2023-05-10T08:15:52;12.66;87.33
68609;SHT31;55581;46.718;7.690;2023-05-10T08:18:20;12.93;88.19
68609;SHT31;55581;46.718;7.690;2023-05-10T08:20:46;13.01;87.21
68609;SHT31;55581;46.718;7.690;2023-05-10T08:23:14;13.10;87.91
68609;SHT31;55581;46.718;7.690;2023-05-10T08:25:39;13.22;87.02
68609;SHT31;55581;46.718;7.690;2023-05-10T08:28:05;13.36;86.93
68609;SHT31;55581;46.718;7.690;2023-05-10T08:30:30;13.31;86.97
68609;SHT31;55581;46.718;7.690;2023-05-10T08:32:56;13.51;87.06
68609;SHT31;55581;46.718;7.690;2023-05-10T08:35:23;13.35;87.52
68609;SHT31;55581;46.718;7.690;2023-05-10T08:37:50;13.35;86.87
68609;SHT31;55581;46.718;7.690;2023-05-10T08:40:15;13.32;87.83
68609;SHT31;55581;46.718;7.690;2023-05-10T08:42:51;13.29;87.63
68609;SHT31;55581;46.718;7.690;2023-05-10T08:45:19;13.49;87.17
68609;SHT31;55581;46.718;7.690;2023-05-10T08:47:48;13.51;85.82
68609;SHT31;55581;46.718;7.690;2023-05-10T08:50:15;13.45;85.56
68609;SHT31;55581;46.718;7.690;2023-05-10T08:52:41;13.34;84.87
68609;SHT31;55581;46.718;7.690;2023-05-10T08:55:07;13.41;86.40
68609;SHT31;55581;46.718;7.690;2023-05-10T08:57:32;13.49;83.57
68609;SHT31;55581;46.718;7.690;2023-05-10T09:00:01;13.51;85.45
68609;SHT31;55581;46.718;7.690;2023-05-10T09:02:27;13.69;85.59
68609;SHT31;55581;46.718;7.690;2023-05-10T09:04:54;13.86;84.80
68609;SHT31;55581;46.718;7.690;2023-05-10T09:07:20;13.88;85.17
68609;SHT31;55581;46.718;7.690;2023-05-10T09:09:45;14.18;83.57
68609;SHT31;55581;46.718;7.690;2023-05-10T09:12:12;14.15;82.70
68609;SHT31;55581;46.718;7.690;2023-05-10T09:14:41;14.17;81.03
68609;SHT31;55581;46.718;7.690;2023-05-10T09:17:07;14.15;82.83
68609;SHT31;55581;46.718;7.690;2023-05-10T09:19:33;14.28;82.48
68609;SHT31;55581;46.718;7.690;2023-05-10T09:21:58;14.13;81.40
68609;SHT31;55581;46.718;7.690;2023-05-10T09:24:25;14.03;82.46
68609;SHT31;55581;46.718;7.690;2023-05-10T09:26:52;13.81;80.61
68609;SHT31;55581;46.718;7.690;2023-05-10T09:29:18;13.77;81.54
68609;SHT31;55581;46.718;7.690;2023-05-10T09:31:47;13.66;79.57
68609;SHT31;55581;46.718;7.690;2023-05-10T09:34:16;13.67;81.25
68609;SHT31;55581;46.718;7.690;2023-05-10T09:36:56;13.65;83.87
68609;SHT31;55581;46.718;7.690;2023-05-10T09:39:40;13.58;84.19
68609;SHT31;55581;46.718;7.690;2023-05-10T09:42:09;13.39;83.46
68609;SHT31;55581;46.718;7.690;2023-05-10T09:44:36;13.24;82.87
68609;SHT31;55581;46.718;7.690;2023-05-10T09:47:02;13.25;84.86
68609;SHT31;55581;46.718;7.690;2023-05-10T09:49:28;13.32;85.78
68609;SHT31;55581;46.718;7.690;2023-05-10T09:52:05;13.21;85.97
68609;SHT31;55581;46.718;7.690;2023-05-10T09:54:33;13.28;84.78
68609;SHT31;55581;46.718;7.690;2023-05-10T09:56:59;13.22;78.29
68609;SHT31;55581;46.718;7.690;2023-05-10T09:59:27;13.14;78.53
68609;SHT31;55581;46.718;7.690;2023-05-10T10:01:56;13.10;77.09
68609;SHT31;55581;46.718;7.690;2023-05-10T10:04:23;13.03;82.00
68609;SHT31;55581;46.718;7.690;2023-05-10T10:07:04;13.25;80.64
68609;SHT31;55581;46.718;7.690;2023-05-10T10:09:31;13.28;82.67
68609;SHT31;55581;46.718;7.690;2023-05-10T10:11:56;13.43;82.55
68609;SHT31;55581;46.718;7.690;2023-05-10T10:14:22;13.42;81.88
68609;SHT31;55581;46.718;7.690;2023-05-10T10:16:53;13.60;78.27
68609;SHT31;55581;46.718;7.690;2023-05-10T10:19:19;13.41;76.02
68609;SHT31;55581;46.718;7.690;2023-05-10T10:21:49;13.36;78.22
68609;SHT31;55581;46.718;7.690;2023-05-10T10:24:14;13.24;74.31
68609;SHT31;55581;46.718;7.690;2023-05-10T10:26:41;13.22;81.72
68609;SHT31;55581;46.718;7.690;2023-05-10T10:29:26;13.16;80.34
68609;SHT31;55581;46.718;7.690;2023-05-10T10:32:12;12.91;75.21
68609;SHT31;55581;46.718;7.690;2023-05-10T10:34:47;12.59;79.07
68609;SHT31;55581;46.718;7.690;2023-05-10T10:37:14;12.53;81.33
68609;SHT31;55581;46.718;7.690;2023-05-10T10:39:39;12.42;77.30
68609;SHT31;55581;46.718;7.690;2023-05-10T10:42:08;12.61;80.07
68609;SHT31;55581;46.718;7.690;2023-05-10T10:44:36;12.63;78.79
68609;SHT31;55581;46.718;7.690;2023-05-10T10:55:08;13.22;78.18
68609;SHT31;55581;46.718;7.690;2023-05-10T11:11:03;15.31;76.20
68609;SHT31;55581;46.718;7.690;2023-05-10T11:21:17;14.93;72.86
68609;SHT31;55581;46.718;7.690;2023-05-10T11:23:52;14.72;72.88
68609;SHT31;55581;46.718;7.690;2023-05-10T11:26:21;14.48;71.49
68609;SHT31;55581;46.718;7.690;2023-05-10T11:28:52;14.39;72.27
68609;SHT31;55581;46.718;7.690;2023-05-10T11:31:20;14.52;75.81
68609;SHT31;55581;46.718;7.690;2023-05-10T11:33:51;14.61;75.66
68609;SHT31;55581;46.718;7.690;2023-05-10T11:36:18;14.66;74.98
68609;SHT31;55581;46.718;7.690;2023-05-10T11:38:45;14.73;76.25
68609;SHT31;55581;46.718;7.690;2023-05-10T11:41:11;14.49;75.25
68609;SHT31;55581;46.718;7.690;2023-05-10T11:43:39;14.25;73.22
68609;SHT31;55581;46.718;7.690;2023-05-10T11:46:10;13.98;74.71
68609;SHT31;55581;46.718;7.690;2023-05-10T11:48:40;13.93;72.34
68609;SHT31;55581;46.718;7.690;2023-05-10T11:51:07;13.86;80.45
68609;SHT31;55581;46.718;7.690;2023-05-10T11:53:33;13.84;75.74
68609;SHT31;55581;46.718;7.690;2023-05-10T11:56:06;13.58;75.90
68609;SHT31;55581;46.718;7.690;2023-05-10T11:58:35;13.74;77.04
68609;SHT31;55581;46.718;7.690;2023-05-10T12:01:01;13.73;76.78
68609;SHT31;55581;46.718;7.690;2023-05-10T12:03:28;13.81;78.88
68609;SHT31;55581;46.718;7.690;2023-05-10T12:05:55;13.86;77.90
68609;SHT31;55581;46.718;7.690;2023-05-10T12:08:25;13.91;75.55
68609;SHT31;55581;46.718;7.690;2023-05-10T12:11:03;14.21;74.54
68609;SHT31;55581;46.718;7.690;2023-05-10T12:13:28;14.26;77.68
68609;SHT31;55581;46.718;7.690;2023-05-10T12:15:57;14.72;76.51
68609;SHT31;55581;46.718;7.690;2023-05-10T12:18:23;14.96;71.11
68609;SHT31;55581;46.718;7.690;2023-05-10T12:20:52;15.00;73.64
68609;SHT31;55581;46.718;7.690;2023-05-10T12:23:21;14.62;68.36
68609;SHT31;55581;46.718;7.690;2023-05-10T12:25:46;14.62;70.16
68609;SHT31;55581;46.718;7.690;2023-05-10T12:28:11;14.38;66.70
68609;SHT31;55581;46.718;7.690;2023-05-10T12:30:38;14.46;73.22
68609;SHT31;55581;46.718;7.690;2023-05-10T12:33:12;14.48;72.83
68609;SHT31;55581;46.718;7.690;2023-05-10T12:35:48;14.36;75.52
68609;SHT31;55581;46.718;7.690;2023-05-10T12:41:08;14.51;67.44
68609;SHT31;55581;46.718;7.690;2023-05-10T12:43:35;14.59;69.38
68609;SHT31;55581;46.718;7.690;2023-05-10T12:46:08;14.69;62.94
68609;SHT31;55581;46.718;7.690;2023-05-10T12:48:34;14.79;65.88
68609;SHT31;55581;46.718;7.690;2023-05-10T12:51:02;14.91;68.68
68609;SHT31;55581;46.718;7.690;2023-05-10T12:53:28;14.84;72.20
68609;SHT31;55581;46.718;7.690;2023-05-10T12:55:54;14.79;74.26
68609;SHT31;55581;46.718;7.690;2023-05-10T12:58:20;14.93;75.24
68609;SHT31;55581;46.718;7.690;2023-05-10T13:00:45;15.04;77.59
68609;SHT31;55581;46.718;7.690;2023-05-10T13:03:11;14.94;74.91
68609;SHT31;55581;46.718;7.690;2023-05-10T13:05:39;14.86;79.19
68609;SHT31;55581;46.718;7.690;2023-05-10T13:08:05;14.94;76.45
68609;SHT31;55581;46.718;7.690;2023-05-10T13:10:32;14.98;73.45
68609;SHT31;55581;46.718;7.690;2023-05-10T13:12:58;14.98;70.23
68609;SHT31;55581;46.718;7.690;2023-05-10T13:15:24;14.94;73.26
68609;SHT31;55581;46.718;7.690;2023-05-10T13:17:50;14.96;75.67
68609;SHT31;55581;46.718;7.690;2023-05-10T13:20:18;14.86;73.28
68609;SHT31;55581;46.718;7.690;2023-05-10T13:22:44;14.55;74.11
68609;SHT31;55581;46.718;7.690;2023-05-10T13:25:10;14.55;74.71
68609;SHT31;55581;46.718;7.690;2023-05-10T13:27:36;14.55;76.66
68609;SHT31;55581;46.718;7.690;2023-05-10T13:30:02;14.45;78.74
68609;SHT31;55581;46.718;7.690;2023-05-10T13:32:29;14.43;79.10
68609;SHT31;55581;46.718;7.690;2023-05-10T13:34:55;14.46;79.65
68609;SHT31;55581;46.718;7.690;2023-05-10T13:37:22;14.51;74.70
68609;SHT31;55581;46.718;7.690;2023-05-10T13:39:48;14.39;75.76
68609;SHT31;55581;46.718;7.690;2023-05-10T13:42:13;14.31;75.69
68609;SHT31;55581;46.718;7.690;2023-05-10T13:44:39;14.25;75.09
68609;SHT31;55581;46.718;7.690;2023-05-10T13:47:05;14.18;74.42
68609;SHT31;55581;46.718;7.690;2023-05-10T13:49:30;14.14;74.51
68609;SHT31;55581;46.718;7.690;2023-05-10T13:51:56;14.20;73.57
68609;SHT31;55581;46.718;7.690;2023-05-10T13:54:21;14.24;72.45
68609;SHT31;55581;46.718;7.690;2023-05-10T13:56:48;14.13;73.86
68609;SHT31;55581;46.718;7.690;2023-05-10T13:59:14;14.22;76.02
68609;SHT31;55581;46.718;7.690;2023-05-10T14:01:42;14.31;73.70
68609;SHT31;55581;46.718;7.690;2023-05-10T14:04:09;14.38;73.03
68609;SHT31;55581;46.718;7.690;2023-05-10T14:06:38;14.45;73.67
68609;SHT31;55581;46.718;7.690;2023-05-10T14:09:03;14.49;73.19
68609;SHT31;55581;46.718;7.690;2023-05-10T14:11:31;14.52;72.32
68609;SHT31;55581;46.718;7.690;2023-05-10T14:13:57;14.42;72.66
68609;SHT31;55581;46.718;7.690;2023-05-10T14:16:23;14.28;73.50
68609;SHT31;55581;46.718;7.690;2023-05-10T14:18:48;14.25;75.92
68609;SHT31;55581;46.718;7.690;2023-05-10T14:21:15;14.39;70.67
68609;SHT31;55581;46.718;7.690;2023-05-10T14:23:40;14.34;71.86
68609;SHT31;55581;46.718;7.690;2023-05-10T14:26:06;14.32;75.35
68609;SHT31;55581;46.718;7.690;2023-05-10T14:28:33;14.35;73.24
68609;SHT31;55581;46.718;7.690;2023-05-10T14:30:58;14.38;72.88
68609;SHT31;55581;46.718;7.690;2023-05-10T14:33:24;14.55;71.75
68609;SHT31;55581;46.718;7.690;2023-05-10T14:35:50;14.59;70.76
68609;SHT31;55581;46.718;7.690;2023-05-10T14:38:16;14.56;68.61
68609;SHT31;55581;46.718;7.690;2023-05-10T14:40:41;14.52;71.83
68609;SHT31;55581;46.718;7.690;2023-05-10T14:43:08;14.65;69.91
68609;SHT31;55581;46.718;7.690;2023-05-10T14:45:33;14.49;72.38
68609;SHT31;55581;46.718;7.690;2023-05-10T14:48:01;14.62;70.59
68609;SHT31;55581;46.718;7.690;2023-05-10T14:50:32;14.62;69.71
68609;SHT31;55581;46.718;7.690;2023-05-10T14:52:57;14.55;69.32
68609;SHT31;55581;46.718;7.690;2023-05-10T14:55:24;14.59;72.35
68609;SHT31;55581;46.718;7.690;2023-05-10T14:57:49;14.72;67.10
68609;SHT31;55581;46.718;7.690;2023-05-10T15:00:16;14.63;68.17
68609;SHT31;55581;46.718;7.690;2023-05-10T15:02:42;14.53;72.77
68609;SHT31;55581;46.718;7.690;2023-05-10T15:05:07;14.45;72.52
68609;SHT31;55581;46.718;7.690;2023-05-10T15:07:33;14.53;70.68
68609;SHT31;55581;46.718;7.690;2023-05-10T15:09:59;14.45;71.93
68609;SHT31;55581;46.718;7.690;2023-05-10T15:12:24;14.28;74.65
68609;SHT31;55581;46.718;7.690;2023-05-10T15:14:50;14.21;74.21
68609;SHT31;55581;46.718;7.690;2023-05-10T15:17:18;14.07;74.26
68609;SHT31;55581;46.718;7.690;2023-05-10T15:19:43;14.03;74.25
68609;SHT31;55581;46.718;7.690;2023-05-10T15:22:10;13.88;74.44
68609;SHT31;55581;46.718;7.690;2023-05-10T15:24:37;13.84;74.82
68609;SHT31;55581;46.718;7.690;2023-05-10T15:27:03;13.88;75.51
68609;SHT31;55581;46.718;7.690;2023-05-10T15:29:31;13.98;74.59
68609;SHT31;55581;46.718;7.690;2023-05-10T15:31:57;14.01;75.61
68609;SHT31;55581;46.718;7.690;2023-05-10T15:34:23;14.15;75.91
68609;SHT31;55581;46.718;7.690;2023-05-10T15:36:50;14.34;75.62
68609;SHT31;55581;46.718;7.690;2023-05-10T15:39:16;14.53;75.60
68609;SHT31;55581;46.718;7.690;2023-05-10T15:41:41;14.62;74.44
68609;SHT31;55581;46.718;7.690;2023-05-10T15:44:06;14.59;72.10
68609;SHT31;55581;46.718;7.690;2023-05-10T15:46:34;14.66;75.30
68609;SHT31;55581;46.718;7.690;2023-05-10T15:49:00;14.65;73.18
68609;SHT31;55581;46.718;7.690;2023-05-10T15:51:27;14.62;72.16
68609;SHT31;55581;46.718;7.690;2023-05-10T15:53:53;14.56;73.73
68609;SHT31;55581;46.718;7.690;2023-05-10T15:56:18;14.59;73.50
68609;SHT31;55581;46.718;7.690;2023-05-10T15:58:44;14.52;77.15
68609;SHT31;55581;46.718;7.690;2023-05-10T16:01:12;14.55;74.73
68609;SHT31;55581;46.718;7.690;2023-05-10T16:03:40;14.59;75.70
68609;SHT31;55581;46.718;7.690;2023-05-10T16:06:09;14.56;74.56
68609;SHT31;55581;46.718;7.690;2023-05-10T16:08:34;14.59;75.63
68609;SHT31;55581;46.718;7.690;2023-05-10T16:11:00;14.52;74.81
68609;SHT31;55581;46.718;7.690;2023-05-10T16:13:25;14.59;75.31
68609;SHT31;55581;46.718;7.690;2023-05-10T16:15:54;14.39;74.90
68609;SHT31;55581;46.718;7.690;2023-05-10T16:18:21;14.42;74.20
68609;SHT31;55581;46.718;7.690;2023-05-10T16:20:46;14.38;73.02
68609;SHT31;55581;46.718;7.690;2023-05-10T16:23:12;14.49;76.90
68609;SHT31;55581;46.718;7.690;2023-05-10T16:25:39;14.46;76.14
68609;SHT31;55581;46.718;7.690;2023-05-10T16:28:04;14.56;69.25